Time;durP1;ratioP1;P1;durP2;ratioP2;P2;SDS_P1;SDS_P2;PMS_P1;PMS_P2;Temp;Humidity;BMP_temperature;BMP_pressure;BME280_temperature;BME280_humidity;BME280_pressure;Samples;Min_cycle;Max_cycle;Signal;HPM_P1;HPM_P2
2022/11/07 05:00:45;;;;;;;8.30;7.63;;;;;;;;;;5844649;23;20609;-87
2022/11/07 05:03:11;;;;;;;8.27;7.68;;;;;;;;;;5023336;28;20911;-87
2022/11/07 05:05:38;;;;;;;8.20;7.60;;;;;;;;;;5043518;28;20421;-87
2022/11/07 05:08:04;;;;;;;8.90;8.10;;;;;;;;;;5046159;28;20378;-87
2022/11/07 05:10:30;;;;;;;8.40;7.80;;;;;;;;;;5035768;28;20482;-87
2022/11/07 05:12:56;;;;;;;8.63;8.03;;;;;;;;;;5034869;28;20497;-87
2022/11/07 05:15:23;;;;;;;9.15;8.45;;;;;;;;;;5034899;28;20903;-87
2022/11/07 05:17:49;;;;;;;8.95;8.25;;;;;;;;;;5033123;28;20383;-87
2022/11/07 05:20:21;;;;;;;8.70;8.10;;;;;;;;;;5034652;28;20375;-87
2022/11/07 05:25:31;;;;;;;8.15;7.55;;;;;;;;;;5034967;28;20728;-87
2022/11/07 05:27:57;;;;;;;9.15;8.45;;;;;;;;;;5034558;28;20376;-86
2022/11/07 05:30:23;;;;;;;8.30;7.70;;;;;;;;;;5034720;28;20371;-87
2022/11/07 05:32:49;;;;;;;8.35;7.65;;;;;;;;;;5034447;28;20394;-87
2022/11/07 05:35:15;;;;;;;9.63;8.82;;;;;;;;;;5034386;28;20486;-87
2022/11/07 05:37:41;;;;;;;9.10;8.40;;;;;;;;;;5034433;28;20939;-87
2022/11/07 05:40:07;;;;;;;8.50;7.88;;;;;;;;;;5034252;28;20399;-87
2022/11/07 05:42:33;;;;;;;8.13;7.53;;;;;;;;;;5034237;28;20783;-87
2022/11/07 05:44:59;;;;;;;8.27;7.68;;;;;;;;;;5034204;28;20379;-87
2022/11/07 05:47:25;;;;;;;9.00;8.30;;;;;;;;;;5034200;28;20379;-87
2022/11/07 05:49:51;;;;;;;8.40;7.80;;;;;;;;;;5036691;28;20409;-86
2022/11/07 05:52:17;;;;;;;8.65;8.05;;;;;;;;;;5033978;28;20379;-87
2022/11/07 05:54:43;;;;;;;8.63;7.93;;;;;;;;;;5034143;28;20454;-87
2022/11/07 05:57:09;;;;;;;8.25;7.57;;;;;;;;;;5033883;28;20387;-86
2022/11/07 05:59:35;;;;;;;7.78;7.28;;;;;;;;;;5034022;28;20375;-86
2022/11/07 06:02:01;;;;;;;8.80;8.00;;;;;;;;;;5033098;28;20391;-86
2022/11/07 06:04:27;;;;;;;8.40;7.80;;;;;;;;;;5033890;28;20411;-86
2022/11/07 06:06:53;;;;;;;8.73;8.07;;;;;;;;;;5033871;28;20860;-87
2022/11/07 06:09:19;;;;;;;8.77;8.15;;;;;;;;;;5033198;28;20470;-86
2022/11/07 06:11:45;;;;;;;9.02;8.32;;;;;;;;;;5033723;28;20379;-86
2022/11/07 06:14:11;;;;;;;8.67;7.97;;;;;;;;;;5045444;28;20728;-86
2022/11/07 06:16:37;;;;;;;8.23;7.53;;;;;;;;;;5033466;28;20401;-86
2022/11/07 06:19:03;;;;;;;8.15;7.55;;;;;;;;;;5033684;28;20394;-84
2022/11/07 06:21:29;;;;;;;8.40;7.70;;;;;;;;;;5035419;28;20909;-84
2022/11/07 06:23:55;;;;;;;8.70;7.90;;;;;;;;;;5053679;28;20854;-84
2022/11/07 06:26:21;;;;;;;8.50;7.90;;;;;;;;;;5051366;28;20381;-84
2022/11/07 06:28:47;;;;;;;8.23;7.63;;;;;;;;;;5032339;28;20383;-85
2022/11/07 06:31:13;;;;;;;8.00;7.40;;;;;;;;;;5034704;28;20715;-84
2022/11/07 06:33:39;;;;;;;8.32;7.45;;;;;;;;;;5032558;28;20461;-84
2022/11/07 06:36:09;;;;;;;8.40;7.70;;;;;;;;;;5033275;28;20428;-84
2022/11/07 06:38:36;;;;;;;8.50;7.80;;;;;;;;;;5032928;28;20391;-84
2022/11/07 06:41:09;;;;;;;10.20;9.35;;;;;;;;;;5033160;28;20375;-84
2022/11/07 06:43:35;;;;;;;8.65;7.95;;;;;;;;;;5053048;28;20447;-84
2022/11/07 06:46:03;;;;;;;9.50;8.60;;;;;;;;;;5053418;28;20468;-84
2022/11/07 06:48:29;;;;;;;9.13;8.45;;;;;;;;;;5053068;28;20403;-84
2022/11/07 06:50:56;;;;;;;8.40;7.70;;;;;;;;;;5053177;28;20692;-83
2022/11/07 06:53:21;;;;;;;9.13;8.40;;;;;;;;;;5052794;28;20383;-83
2022/11/07 06:55:47;;;;;;;10.10;9.20;;;;;;;;;;5049503;28;20387;-82
2022/11/07 06:58:13;;;;;;;10.70;9.85;;;;;;;;;;5032863;28;20795;-82
2022/11/07 07:00:39;;;;;;;10.73;9.75;;;;;;;;;;5032380;28;20429;-82
2022/11/07 07:03:05;;;;;;;10.38;9.57;;;;;;;;;;5032669;28;20403;-83
2022/11/07 07:05:34;;;;;;;9.25;8.38;;;;;;;;;;5032648;28;20398;-83
2022/11/07 07:08:00;;;;;;;9.73;8.82;;;;;;;;;;5032834;28;20383;-82
2022/11/07 07:10:26;;;;;;;8.95;8.15;;;;;;;;;;5032568;28;20383;-82
2022/11/07 07:12:55;;;;;;;10.10;9.30;;;;;;;;;;5032566;28;20387;-82
2022/11/07 07:15:21;;;;;;;9.25;8.45;;;;;;;;;;5032716;28;20379;-82
2022/11/07 07:17:47;;;;;;;9.52;8.68;;;;;;;;;;5032357;28;20386;-82
2022/11/07 07:20:13;;;;;;;10.90;9.90;;;;;;;;;;5032556;28;20382;-82
2022/11/07 07:22:39;;;;;;;10.70;9.70;;;;;;;;;;5032314;28;20391;-82
2022/11/07 07:25:06;;;;;;;9.82;8.95;;;;;;;;;;5052396;28;20370;-82
2022/11/07 07:27:32;;;;;;;8.95;8.25;;;;;;;;;;5052454;28;20377;-82
2022/11/07 07:29:58;;;;;;;10.60;9.55;;;;;;;;;;5052540;28;20461;-82
2022/11/07 07:32:24;;;;;;;11.17;10.07;;;;;;;;;;5043742;28;20777;-82
2022/11/07 07:34:51;;;;;;;11.75;10.57;;;;;;;;;;5032542;28;20381;-82
2022/11/07 07:37:17;;;;;;;9.45;8.75;;;;;;;;;;5052351;28;20392;-83
2022/11/07 07:39:43;;;;;;;10.50;9.70;;;;;;;;;;5051979;28;20382;-84
2022/11/07 07:42:09;;;;;;;9.77;8.88;;;;;;;;;;5051463;28;20885;-83
2022/11/07 07:44:35;;;;;;;9.30;8.60;;;;;;;;;;5051963;28;20420;-83
2022/11/07 07:47:01;;;;;;;10.18;9.27;;;;;;;;;;5052521;28;20799;-84
2022/11/07 07:49:27;;;;;;;9.73;8.93;;;;;;;;;;5031786;28;20419;-84
2022/11/07 07:51:54;;;;;;;9.82;9.10;;;;;;;;;;5031999;28;20387;-84
2022/11/07 07:54:20;;;;;;;10.30;9.50;;;;;;;;;;5032186;28;20379;-84
2022/11/07 07:56:46;;;;;;;9.70;8.93;;;;;;;;;;5031573;28;20387;-83
2022/11/07 07:59:12;;;;;;;11.15;10.15;;;;;;;;;;5032185;28;20398;-83
2022/11/07 08:01:38;;;;;;;10.73;9.80;;;;;;;;;;5031722;28;20418;-83
2022/11/07 08:04:04;;;;;;;10.13;9.27;;;;;;;;;;5031847;28;20488;-83
2022/11/07 08:06:31;;;;;;;12.02;10.30;;;;;;;;;;5032046;28;20382;-83
2022/11/07 08:08:57;;;;;;;11.50;10.17;;;;;;;;;;5029375;28;20411;-85
2022/11/07 08:11:23;;;;;;;11.75;10.65;;;;;;;;;;5031368;28;20379;-83
2022/11/07 08:13:49;;;;;;;11.95;10.75;;;;;;;;;;5031900;28;20398;-84
2022/11/07 08:16:15;;;;;;;11.35;10.25;;;;;;;;;;5031393;28;20383;-84
2022/11/07 08:18:41;;;;;;;11.00;10.10;;;;;;;;;;5033367;28;20391;-85
2022/11/07 08:21:07;;;;;;;11.53;10.53;;;;;;;;;;5031631;28;20419;-84
2022/11/07 08:23:33;;;;;;;10.82;10.02;;;;;;;;;;5038062;28;20794;-84
2022/11/07 08:26:01;;;;;;;11.38;10.38;;;;;;;;;;5032433;28;20391;-84
2022/11/07 08:28:28;;;;;;;12.90;11.80;;;;;;;;;;5029770;28;20482;-84
2022/11/07 08:30:58;;;;;;;12.52;11.52;;;;;;;;;;5031367;28;20485;-84
2022/11/07 08:33:25;;;;;;;12.35;11.15;;;;;;;;;;5031721;28;20414;-84
2022/11/07 08:35:52;;;;;;;11.48;10.38;;;;;;;;;;5031425;28;20375;-84
2022/11/07 08:38:18;;;;;;;11.38;10.48;;;;;;;;;;5030370;28;20387;-84
2022/11/07 08:40:44;;;;;;;11.25;10.23;;;;;;;;;;5034070;28;20383;-84
2022/11/07 08:43:10;;;;;;;12.30;11.15;;;;;;;;;;5031523;28;20429;-84
2022/11/07 08:45:36;;;;;;;13.15;11.95;;;;;;;;;;5031886;28;20788;-84
2022/11/07 08:48:02;;;;;;;12.07;10.98;;;;;;;;;;5031271;28;20375;-84
2022/11/07 08:50:28;;;;;;;14.02;12.52;;;;;;;;;;5051771;28;20405;-84
2022/11/07 08:52:54;;;;;;;13.35;12.18;;;;;;;;;;5054217;28;20389;-84
2022/11/07 08:55:20;;;;;;;14.87;13.43;;;;;;;;;;5055228;28;20464;-84
2022/11/07 08:57:46;;;;;;;14.20;12.90;;;;;;;;;;5035888;28;20474;-84
2022/11/07 09:00:12;;;;;;;18.02;14.35;;;;;;;;;;5034629;28;20798;-84
2022/11/07 09:02:38;;;;;;;15.85;14.27;;;;;;;;;;5035035;28;20383;-84
2022/11/07 09:05:05;;;;;;;17.10;15.43;;;;;;;;;;5034596;28;20378;-84
2022/11/07 09:07:31;;;;;;;18.70;14.60;;;;;;;;;;5035239;28;20379;-84
2022/11/07 09:09:57;;;;;;;12.63;11.23;;;;;;;;;;5034736;28;20876;-84
2022/11/07 09:12:22;;;;;;;11.52;10.63;;;;;;;;;;5034858;28;20387;-84
2022/11/07 09:14:48;;;;;;;11.18;10.05;;;;;;;;;;5035248;28;20395;-84
2022/11/07 09:17:16;;;;;;;10.63;9.63;;;;;;;;;;5034711;28;20486;-84
2022/11/07 09:19:42;;;;;;;9.88;8.93;;;;;;;;;;5034484;28;20474;-84
2022/11/07 09:22:08;;;;;;;10.53;9.40;;;;;;;;;;5034686;28;20474;-84
2022/11/07 09:24:34;;;;;;;11.40;10.20;;;;;;;;;;5035656;28;20419;-84
2022/11/07 09:27:00;;;;;;;11.90;10.63;;;;;;;;;;5035003;28;20391;-84
2022/11/07 09:29:26;;;;;;;12.48;11.30;;;;;;;;;;5034306;28;20467;-84
2022/11/07 09:31:52;;;;;;;12.23;11.13;;;;;;;;;;5034515;28;20710;-84
2022/11/07 09:34:18;;;;;;;11.50;10.40;;;;;;;;;;5034434;28;20374;-84
2022/11/07 09:36:44;;;;;;;11.05;10.05;;;;;;;;;;5034675;28;20384;-84
2022/11/07 09:39:10;;;;;;;11.02;10.02;;;;;;;;;;5033496;28;20431;-84
2022/11/07 09:41:55;;;;;;;9.73;8.93;;;;;;;;;;5039405;28;20390;-84
2022/11/07 09:44:32;;;;;;;8.60;7.90;;;;;;;;;;5027072;28;20399;-85
2022/11/07 09:46:58;;;;;;;8.80;8.00;;;;;;;;;;5034559;28;20375;-84
2022/11/07 09:49:31;;;;;;;7.63;6.95;;;;;;;;;;5036736;28;20379;-84
2022/11/07 09:52:03;;;;;;;4.57;4.10;;;;;;;;;;5034030;28;20387;-84
2022/11/07 09:54:32;;;;;;;3.25;3.05;;;;;;;;;;5036244;28;20882;-84
2022/11/07 09:56:59;;;;;;;3.60;3.30;;;;;;;;;;5040895;28;20391;-84
2022/11/07 09:59:31;;;;;;;3.78;3.47;;;;;;;;;;5034769;28;20457;-83
2022/11/07 10:01:57;;;;;;;4.20;3.38;;;;;;;;;;5051575;28;20422;-84
2022/11/07 10:04:23;;;;;;;3.83;3.53;;;;;;;;;;5032666;28;20403;-84
2022/11/07 10:06:52;;;;;;;6.03;3.60;;;;;;;;;;5033868;28;20382;-83
2022/11/07 10:09:27;;;;;;;3.70;3.40;;;;;;;;;;5054157;28;20866;-83
2022/11/07 10:11:59;;;;;;;4.72;3.60;;;;;;;;;;5015057;28;20447;-84
2022/11/07 10:14:28;;;;;;;4.20;3.80;;;;;;;;;;5032997;28;20371;-83
2022/11/07 10:17:13;;;;;;;5.20;3.33;;;;;;;;;;5027712;28;20424;-83
2022/11/07 10:19:45;;;;;;;3.78;3.47;;;;;;;;;;5032889;28;20387;-84
2022/11/07 10:22:32;;;;;;;3.40;3.10;;;;;;;;;;5033619;28;20375;-84
2022/11/07 10:24:58;;;;;;;3.17;2.83;;;;;;;;;;5022049;28;20435;-84
2022/11/07 10:27:26;;;;;;;2.90;2.70;;;;;;;;;;5029474;28;20462;-84
2022/11/07 10:29:53;;;;;;;3.42;3.13;;;;;;;;;;5020834;28;20411;-84
2022/11/07 10:32:22;;;;;;;3.15;2.85;;;;;;;;;;5045636;28;20943;-84
2022/11/07 10:34:59;;;;;;;4.65;3.13;;;;;;;;;;5036024;28;20816;-84
2022/11/07 10:37:25;;;;;;;3.27;2.97;;;;;;;;;;5027303;28;20966;-84
2022/11/07 10:39:51;;;;;;;4.13;3.05;;;;;;;;;;5033712;28;20375;-84
2022/11/07 10:42:20;;;;;;;3.70;3.10;;;;;;;;;;5033208;28;20391;-84
2022/11/07 10:44:46;;;;;;;3.92;3.50;;;;;;;;;;5033184;28;20407;-85
2022/11/07 10:47:19;;;;;;;4.00;3.40;;;;;;;;;;5033883;28;20384;-84
2022/11/07 10:49:55;;;;;;;3.30;2.70;;;;;;;;;;5028079;28;20776;-84
2022/11/07 10:52:21;;;;;;;4.38;3.10;;;;;;;;;;5033190;28;20387;-85
2022/11/07 10:54:47;;;;;;;3.47;2.77;;;;;;;;;;5033055;28;20398;-85
2022/11/07 10:57:18;;;;;;;3.53;2.80;;;;;;;;;;5032962;28;20387;-84
2022/11/07 10:59:46;;;;;;;2.75;2.55;;;;;;;;;;5032991;28;20410;-85
2022/11/07 11:02:19;;;;;;;2.92;2.50;;;;;;;;;;5045599;28;20391;-84
2022/11/07 11:04:53;;;;;;;2.80;2.58;;;;;;;;;;5033166;28;20407;-84
2022/11/07 11:07:19;;;;;;;2.70;2.33;;;;;;;;;;5032800;28;20375;-84
2022/11/07 11:09:50;;;;;;;2.70;2.50;;;;;;;;;;5052707;28;20432;-84
2022/11/07 11:12:16;;;;;;;3.75;2.75;;;;;;;;;;5052574;28;20385;-84
2022/11/07 11:14:42;;;;;;;4.05;2.47;;;;;;;;;;5043398;28;20387;-84
2022/11/07 11:17:25;;;;;;;3.65;1.98;;;;;;;;;;5032694;28;20402;-84
2022/11/07 11:19:52;;;;;;;3.17;2.40;;;;;;;;;;5052565;28;20862;-84
2022/11/07 11:22:21;;;;;;;2.47;2.28;;;;;;;;;;5052460;28;20394;-83
2022/11/07 11:24:57;;;;;;;3.33;2.20;;;;;;;;;;5052335;28;20586;-83
2022/11/07 11:27:25;;;;;;;2.83;2.10;;;;;;;;;;5052487;28;20444;-84
2022/11/07 11:30:20;;;;;;;2.78;2.20;;;;;;;;;;5052599;28;20381;-83
2022/11/07 11:32:47;;;;;;;3.03;2.10;;;;;;;;;;5023719;28;20391;-83
2022/11/07 11:35:28;;;;;;;2.55;1.95;;;;;;;;;;5032415;28;20390;-83
2022/11/07 11:37:58;;;;;;;2.88;1.90;;;;;;;;;;5034891;28;20382;-83
2022/11/07 11:40:24;;;;;;;4.30;2.03;;;;;;;;;;5032292;28;20872;-84
2022/11/07 11:42:53;;;;;;;3.28;2.45;;;;;;;;;;5052249;28;20413;-85
2022/11/07 11:45:50;;;;;;;2.55;2.13;;;;;;;;;;5052232;28;20396;-83
2022/11/07 11:48:16;;;;;;;2.70;2.50;;;;;;;;;;5038951;28;20467;-84
2022/11/07 11:50:51;;;;;;;2.90;1.80;;;;;;;;;;5032404;28;20856;-85
2022/11/07 11:53:21;;;;;;;2.13;1.95;;;;;;;;;;5052060;28;20385;-84
2022/11/07 11:55:53;;;;;;;2.13;1.92;;;;;;;;;;5010129;28;20387;-85
2022/11/07 11:58:26;;;;;;;2.45;2.05;;;;;;;;;;5032203;28;20891;-84
2022/11/07 12:01:14;;;;;;;4.20;2.25;;;;;;;;;;5022364;28;20387;-84
2022/11/07 12:03:51;;;;;;;2.53;1.88;;;;;;;;;;5032824;28;20457;-85
2022/11/07 12:06:27;;;;;;;3.13;1.80;;;;;;;;;;5032366;28;20398;-84
2022/11/07 12:08:53;;;;;;;2.75;1.85;;;;;;;;;;5032287;28;20513;-84
2022/11/07 12:11:31;;;;;;;2.78;2.08;;;;;;;;;;5031941;28;20837;-85
2022/11/07 12:14:20;;;;;;;5.03;1.98;;;;;;;;;;5031505;28;20474;-85
2022/11/07 12:16:46;;;;;;;3.33;2.35;;;;;;;;;;5051120;28;20421;-85
2022/11/07 12:19:25;;;;;;;2.50;1.80;;;;;;;;;;5045289;28;20430;-84
2022/11/07 12:21:57;;;;;;;3.00;2.00;;;;;;;;;;5031776;28;20395;-84
2022/11/07 12:24:23;;;;;;;2.42;1.80;;;;;;;;;;5031819;28;20438;-84
2022/11/07 12:27:02;;;;;;;2.25;1.85;;;;;;;;;;5028948;28;20476;-85
2022/11/07 12:29:43;;;;;;;2.58;1.88;;;;;;;;;;5018442;28;20408;-85
2022/11/07 12:32:09;;;;;;;3.13;2.15;;;;;;;;;;5025715;28;20407;-85
2022/11/07 12:34:41;;;;;;;2.65;1.55;;;;;;;;;;5035548;28;20421;-85
2022/11/07 12:37:07;;;;;;;2.30;1.50;;;;;;;;;;5024642;28;20908;-84
2022/11/07 12:39:33;;;;;;;3.03;1.77;;;;;;;;;;5034754;28;20421;-84
2022/11/07 12:42:17;;;;;;;2.60;1.80;;;;;;;;;;5035504;28;20418;-84
2022/11/07 12:45:13;;;;;;;2.28;1.70;;;;;;;;;;5028110;28;21003;-84
2022/11/07 12:47:49;;;;;;;2.90;1.60;;;;;;;;;;5035339;28;20390;-84
2022/11/07 12:50:21;;;;;;;3.13;1.73;;;;;;;;;;5032519;28;20849;-85
2022/11/07 12:52:47;;;;;;;2.97;1.67;;;;;;;;;;5019166;28;20883;-84
2022/11/07 12:55:15;;;;;;;2.70;1.60;;;;;;;;;;5022986;28;20410;-85
2022/11/07 12:57:41;;;;;;;3.53;1.50;;;;;;;;;;5035240;28;20387;-85
2022/11/07 13:00:18;;;;;;;2.33;1.45;;;;;;;;;;5035296;28;20390;-83
2022/11/07 13:02:54;;;;;;;3.42;1.23;;;;;;;;;;5043813;28;20407;-83
2022/11/07 13:05:35;;;;;;;2.20;1.23;;;;;;;;;;5035484;28;20457;-84
2022/11/07 13:08:20;;;;;;;2.47;1.20;;;;;;;;;;5035139;28;20868;-83
2022/11/07 13:10:50;;;;;;;2.47;1.30;;;;;;;;;;5035208;28;20390;-83
2022/11/07 13:13:23;;;;;;;3.38;1.23;;;;;;;;;;5037167;28;20402;-83
2022/11/07 13:15:49;;;;;;;1.98;1.15;;;;;;;;;;5054866;28;20381;-83
2022/11/07 13:18:33;;;;;;;2.20;1.20;;;;;;;;;;5036843;28;20456;-83
2022/11/07 13:21:00;;;;;;;2.50;1.10;;;;;;;;;;5032814;28;20884;-83
2022/11/07 13:23:27;;;;;;;1.90;1.08;;;;;;;;;;5034706;28;20430;-83
2022/11/07 13:26:03;;;;;;;1.85;1.23;;;;;;;;;;5054765;28;20395;-83
2022/11/07 13:28:43;;;;;;;1.77;1.20;;;;;;;;;;5055127;28;20458;-83
2022/11/07 13:31:28;;;;;;;2.50;1.13;;;;;;;;;;5054490;28;20409;-83
2022/11/07 13:33:53;;;;;;;2.70;1.20;;;;;;;;;;5027071;28;20412;-83
2022/11/07 13:36:26;;;;;;;2.03;1.03;;;;;;;;;;5036947;28;20378;-84
2022/11/07 13:38:56;;;;;;;1.98;1.02;;;;;;;;;;5053467;28;20459;-83
2022/11/07 13:41:22;;;;;;;3.58;1.10;;;;;;;;;;5054295;28;20758;-83
2022/11/07 13:43:59;;;;;;;1.77;1.02;;;;;;;;;;5054238;28;20412;-83
2022/11/07 13:46:29;;;;;;;1.67;1.00;;;;;;;;;;5049886;28;20519;-83
2022/11/07 13:48:58;;;;;;;1.63;0.90;;;;;;;;;;5034280;28;20386;-83
2022/11/07 13:51:39;;;;;;;2.00;1.30;;;;;;;;;;5054143;28;20476;-83
2022/11/07 13:54:16;;;;;;;1.77;0.90;;;;;;;;;;5054190;28;20407;-83
2022/11/07 13:56:50;;;;;;;3.33;1.10;;;;;;;;;;5043241;28;20390;-83
2022/11/07 13:59:37;;;;;;;2.45;1.10;;;;;;;;;;5034535;28;20387;-83
2022/11/07 14:02:03;;;;;;;2.00;1.13;;;;;;;;;;5033674;28;20399;-83
2022/11/07 14:04:29;;;;;;;2.88;1.08;;;;;;;;;;5034139;28;20760;-83
2022/11/07 14:06:56;;;;;;;1.52;1.00;;;;;;;;;;5034092;28;20732;-83
2022/11/07 14:09:22;;;;;;;1.70;0.95;;;;;;;;;;5033932;28;20390;-83
2022/11/07 14:11:50;;;;;;;2.72;1.17;;;;;;;;;;5033891;28;20376;-83
2022/11/07 14:14:16;;;;;;;1.80;0.90;;;;;;;;;;5034763;28;20398;-83
2022/11/07 14:16:46;;;;;;;2.63;0.90;;;;;;;;;;5033978;28;20399;-83
2022/11/07 14:19:25;;;;;;;2.05;0.93;;;;;;;;;;5036195;28;20434;-83
2022/11/07 14:21:52;;;;;;;2.40;1.15;;;;;;;;;;5033920;28;20375;-83
2022/11/07 14:24:24;;;;;;;1.20;0.80;;;;;;;;;;5032481;28;20407;-83
2022/11/07 14:26:57;;;;;;;2.55;1.02;;;;;;;;;;5033737;28;20431;-83
2022/11/07 14:29:23;;;;;;;2.33;1.23;;;;;;;;;;5033243;28;20375;-83
2022/11/07 14:31:49;;;;;;;1.80;1.00;;;;;;;;;;5033614;28;20386;-83
2022/11/07 14:34:20;;;;;;;2.22;0.90;;;;;;;;;;5033472;28;20391;-83
2022/11/07 14:36:49;;;;;;;3.40;1.20;;;;;;;;;;5033767;28;20387;-83
2022/11/07 14:39:15;;;;;;;2.90;1.15;;;;;;;;;;5033457;28;20471;-83
2022/11/07 14:41:42;;;;;;;3.43;1.17;;;;;;;;;;5053020;28;20412;-83
2022/11/07 14:44:12;;;;;;;2.17;1.03;;;;;;;;;;5053176;28;20408;-83
2022/11/07 14:46:39;;;;;;;1.70;0.93;;;;;;;;;;5053141;28;20738;-83
2022/11/07 14:49:05;;;;;;;2.05;1.10;;;;;;;;;;5052981;28;20750;-83
2022/11/07 14:51:31;;;;;;;2.63;1.20;;;;;;;;;;5052743;28;20456;-83
2022/11/07 14:54:00;;;;;;;2.90;1.05;;;;;;;;;;5053112;28;20435;-83
2022/11/07 14:56:32;;;;;;;2.30;0.98;;;;;;;;;;5044453;28;20418;-83
2022/11/07 14:58:58;;;;;;;2.00;1.17;;;;;;;;;;5033157;28;20380;-83
2022/11/07 15:01:26;;;;;;;2.87;1.10;;;;;;;;;;5032787;28;20614;-83
2022/11/07 15:03:58;;;;;;;3.45;1.40;;;;;;;;;;5032719;28;20418;-83
2022/11/07 15:06:28;;;;;;;3.20;1.08;;;;;;;;;;5032896;28;20376;-83
2022/11/07 15:08:55;;;;;;;2.83;1.05;;;;;;;;;;5032855;28;20374;-83
2022/11/07 15:11:27;;;;;;;3.10;1.20;;;;;;;;;;5034823;28;20875;-83
2022/11/07 15:13:53;;;;;;;1.67;0.88;;;;;;;;;;5052780;28;20738;-83
2022/11/07 15:16:21;;;;;;;2.00;1.00;;;;;;;;;;5052584;28;20388;-83
2022/11/07 15:18:49;;;;;;;2.03;1.48;;;;;;;;;;5052504;28;20720;-83
2022/11/07 15:21:32;;;;;;;2.35;1.30;;;;;;;;;;5033133;28;20386;-84
2022/11/07 15:23:59;;;;;;;2.25;1.13;;;;;;;;;;5032684;28;20759;-83
2022/11/07 15:26:29;;;;;;;1.57;1.00;;;;;;;;;;5032496;28;20437;-83
2022/11/07 15:29:00;;;;;;;1.63;1.10;;;;;;;;;;5032717;28;20462;-84
2022/11/07 15:31:29;;;;;;;1.98;1.10;;;;;;;;;;5032490;28;20387;-84
2022/11/07 15:33:56;;;;;;;2.00;1.47;;;;;;;;;;5032358;28;20391;-84
2022/11/07 15:36:22;;;;;;;2.95;1.80;;;;;;;;;;5031017;28;20403;-83
2022/11/07 15:38:50;;;;;;;3.15;2.58;;;;;;;;;;5052556;28;20439;-83
2022/11/07 15:41:16;;;;;;;3.00;1.80;;;;;;;;;;5052328;28;20466;-82
2022/11/07 15:43:42;;;;;;;2.35;1.80;;;;;;;;;;5032714;28;20408;-83
2022/11/07 15:46:27;;;;;;;3.30;2.20;;;;;;;;;;5026200;28;20463;-83
2022/11/07 15:48:53;;;;;;;4.03;2.23;;;;;;;;;;5032682;28;20447;-82
2022/11/07 15:51:19;;;;;;;3.85;2.00;;;;;;;;;;5029532;28;20891;-82
2022/11/07 15:53:45;;;;;;;3.78;2.20;;;;;;;;;;5031959;28;20422;-83
2022/11/07 15:56:13;;;;;;;10.15;3.38;;;;;;;;;;5034101;28;20383;-82
2022/11/07 15:58:40;;;;;;;6.50;2.80;;;;;;;;;;5032770;28;20429;-83
2022/11/07 16:01:06;;;;;;;5.90;2.80;;;;;;;;;;5035233;28;20750;-83
2022/11/07 16:03:32;;;;;;;6.13;2.53;;;;;;;;;;5040652;28;20407;-83
2022/11/07 16:06:01;;;;;;;7.78;3.00;;;;;;;;;;5032244;28;20848;-83
2022/11/07 16:08:28;;;;;;;6.35;2.50;;;;;;;;;;5050952;28;20502;-83
2022/11/07 16:10:55;;;;;;;5.55;2.80;;;;;;;;;;5031632;28;20379;-83
2022/11/07 16:13:22;;;;;;;5.15;3.05;;;;;;;;;;5031260;28;20391;-83
2022/11/07 16:15:49;;;;;;;6.88;3.60;;;;;;;;;;5031250;28;20382;-83
2022/11/07 16:18:16;;;;;;;9.57;5.07;;;;;;;;;;5030762;28;20452;-83
2022/11/07 16:20:42;;;;;;;23.73;11.60;;;;;;;;;;5036882;28;20396;-83
2022/11/07 16:23:09;;;;;;;9.02;6.20;;;;;;;;;;5043628;28;20429;-83
2022/11/07 16:25:36;;;;;;;11.27;6.55;;;;;;;;;;5031407;28;20383;-83
2022/11/07 16:28:02;;;;;;;12.35;7.57;;;;;;;;;;5018449;28;20383;-83
2022/11/07 16:30:28;;;;;;;12.85;7.50;;;;;;;;;;5031278;28;20386;-84
2022/11/07 16:32:55;;;;;;;12.35;6.80;;;;;;;;;;5051247;28;20456;-84
2022/11/07 16:35:21;;;;;;;16.63;7.18;;;;;;;;;;5035494;28;20450;-85
2022/11/07 16:37:47;;;;;;;12.02;6.18;;;;;;;;;;5031973;28;20407;-83
2022/11/07 16:40:15;;;;;;;16.30;8.88;;;;;;;;;;5034026;28;20404;-83
2022/11/07 16:42:41;;;;;;;12.45;7.40;;;;;;;;;;5029569;28;20947;-84
2022/11/07 16:45:07;;;;;;;10.30;6.80;;;;;;;;;;5050705;28;20492;-84
2022/11/07 16:47:36;;;;;;;12.90;7.10;;;;;;;;;;5044120;28;20518;-83
2022/11/07 16:50:03;;;;;;;28.67;16.73;;;;;;;;;;5030594;28;20437;-83
2022/11/07 16:52:29;;;;;;;45.23;23.93;;;;;;;;;;5032585;28;20462;-83
2022/11/07 16:54:55;;;;;;;44.97;23.85;;;;;;;;;;5050576;28;20386;-83
2022/11/07 16:57:23;;;;;;;30.15;17.17;;;;;;;;;;5024236;28;20742;-83
2022/11/07 16:59:51;;;;;;;48.70;25.10;;;;;;;;;;5013989;28;20435;-83
2022/11/07 17:02:17;;;;;;;44.33;25.13;;;;;;;;;;5029747;28;20864;-83
2022/11/07 17:04:43;;;;;;;62.65;29.42;;;;;;;;;;5030348;28;20979;-83
2022/11/07 17:07:13;;;;;;;65.35;29.65;;;;;;;;;;5030453;28;20441;-83
2022/11/07 17:09:39;;;;;;;71.32;34.53;;;;;;;;;;5030291;28;20710;-83
2022/11/07 17:12:11;;;;;;;76.35;33.92;;;;;;;;;;5029682;28;20383;-83
2022/11/07 17:14:37;;;;;;;68.82;32.05;;;;;;;;;;5037042;28;20405;-83
2022/11/07 17:17:04;;;;;;;78.95;35.03;;;;;;;;;;5042081;28;20873;-83
2022/11/07 17:19:30;;;;;;;108.40;44.63;;;;;;;;;;5033709;28;20471;-87
2022/11/07 17:21:56;;;;;;;76.00;35.03;;;;;;;;;;5033500;28;20465;-85
2022/11/07 17:24:22;;;;;;;111.05;47.42;;;;;;;;;;5033650;28;20429;-86
2022/11/07 17:26:48;;;;;;;94.07;40.53;;;;;;;;;;5035732;28;20388;-86
2022/11/07 17:29:14;;;;;;;97.50;39.75;;;;;;;;;;5053628;28;20385;-86
2022/11/07 17:31:40;;;;;;;93.90;38.30;;;;;;;;;;5053304;28;20369;-85
2022/11/07 17:34:07;;;;;;;69.88;30.85;;;;;;;;;;5053185;28;20392;-86
2022/11/07 17:36:34;;;;;;;59.50;27.30;;;;;;;;;;5053470;28;20385;-85
2022/11/07 17:39:01;;;;;;;39.88;20.60;;;;;;;;;;5041652;28;20383;-85
2022/11/07 17:41:28;;;;;;;21.35;13.07;;;;;;;;;;5024627;28;20417;-85
2022/11/07 17:43:55;;;;;;;15.10;11.45;;;;;;;;;;5032970;28;20439;-85
2022/11/07 17:46:29;;;;;;;12.82;9.50;;;;;;;;;;5033471;28;20460;-86
2022/11/07 17:48:55;;;;;;;11.30;8.90;;;;;;;;;;5035530;28;20372;-85
2022/11/07 17:51:22;;;;;;;30.52;15.30;;;;;;;;;;5032974;28;20384;-86
2022/11/07 17:53:48;;;;;;;21.90;13.15;;;;;;;;;;5033342;28;20390;-86
2022/11/07 17:56:16;;;;;;;28.48;16.05;;;;;;;;;;5028479;28;20379;-86
2022/11/07 17:58:42;;;;;;;43.60;20.02;;;;;;;;;;5034652;28;20840;-86
2022/11/07 18:01:15;;;;;;;31.40;16.38;;;;;;;;;;5031186;28;20413;-86
2022/11/07 18:03:41;;;;;;;29.85;14.93;;;;;;;;;;5014030;28;20458;-85
2022/11/07 18:06:07;;;;;;;25.50;13.05;;;;;;;;;;5036886;28;20401;-85
2022/11/07 18:08:35;;;;;;;23.03;11.87;;;;;;;;;;5034044;28;20380;-85
2022/11/07 18:11:01;;;;;;;25.60;13.95;;;;;;;;;;5030830;28;20473;-83
2022/11/07 18:13:27;;;;;;;25.40;13.20;;;;;;;;;;5032421;28;20394;-83
2022/11/07 18:15:54;;;;;;;24.42;11.70;;;;;;;;;;5036547;28;20391;-84
2022/11/07 18:18:20;;;;;;;22.35;11.48;;;;;;;;;;5037399;28;20463;-84
2022/11/07 18:20:46;;;;;;;19.40;11.15;;;;;;;;;;5025309;28;20392;-84
2022/11/07 18:23:12;;;;;;;16.23;8.43;;;;;;;;;;5019712;28;20489;-84
2022/11/07 18:25:38;;;;;;;14.75;6.43;;;;;;;;;;5021405;28;20414;-83
2022/11/07 18:28:05;;;;;;;11.88;7.25;;;;;;;;;;5031115;28;20936;-83
2022/11/07 18:30:31;;;;;;;10.50;5.53;;;;;;;;;;5033803;28;20395;-83
2022/11/07 18:32:57;;;;;;;6.05;3.90;;;;;;;;;;5041019;28;20374;-83
2022/11/07 18:35:23;;;;;;;7.68;4.53;;;;;;;;;;5025701;28;20794;-84
2022/11/07 18:37:50;;;;;;;8.90;4.83;;;;;;;;;;5017721;28;20385;-84
2022/11/07 18:40:16;;;;;;;9.60;6.00;;;;;;;;;;5011520;28;20388;-84
2022/11/07 18:42:43;;;;;;;10.15;7.90;;;;;;;;;;5025079;28;20376;-84
2022/11/07 18:45:09;;;;;;;11.23;8.30;;;;;;;;;;5037196;28;20480;-83
2022/11/07 18:47:35;;;;;;;9.75;8.07;;;;;;;;;;5041067;28;20382;-84
2022/11/07 18:50:01;;;;;;;9.05;7.65;;;;;;;;;;5033026;28;20383;-84
2022/11/07 18:52:30;;;;;;;10.23;8.18;;;;;;;;;;5034998;28;20411;-84
2022/11/07 18:54:56;;;;;;;10.20;8.77;;;;;;;;;;5052985;28;20386;-84
2022/11/07 18:57:22;;;;;;;14.57;11.38;;;;;;;;;;5035971;28;20957;-84
2022/11/07 18:59:48;;;;;;;16.42;12.70;;;;;;;;;;5041770;28;20528;-84
2022/11/07 19:02:15;;;;;;;15.45;12.60;;;;;;;;;;5018177;28;20402;-82
2022/11/07 19:04:43;;;;;;;19.05;13.30;;;;;;;;;;5052663;28;20814;-82
2022/11/07 19:07:09;;;;;;;15.23;11.73;;;;;;;;;;5048502;28;20907;-82
2022/11/07 19:09:35;;;;;;;12.52;10.20;;;;;;;;;;5032891;28;20383;-82
2022/11/07 19:12:02;;;;;;;11.90;10.33;;;;;;;;;;5020686;28;20473;-82
2022/11/07 19:14:28;;;;;;;12.50;11.07;;;;;;;;;;5021095;28;20852;-83
2022/11/07 19:16:54;;;;;;;11.40;10.20;;;;;;;;;;5002847;28;20718;-83
2022/11/07 19:19:21;;;;;;;10.27;9.27;;;;;;;;;;5014041;28;20385;-83
2022/11/07 19:21:47;;;;;;;9.68;8.70;;;;;;;;;;5020971;28;20395;-83
2022/11/07 19:24:14;;;;;;;9.35;8.45;;;;;;;;;;5014245;28;20417;-83
2022/11/07 19:26:40;;;;;;;8.38;7.50;;;;;;;;;;5028493;28;20857;-83
2022/11/07 19:29:08;;;;;;;10.13;8.05;;;;;;;;;;5021944;28;20878;-83
2022/11/07 19:31:34;;;;;;;9.20;7.70;;;;;;;;;;5029575;28;20379;-83
2022/11/07 19:34:00;;;;;;;10.60;7.32;;;;;;;;;;5043930;28;20931;-83
2022/11/07 19:36:26;;;;;;;7.82;7.03;;;;;;;;;;5043074;28;20435;-83
2022/11/07 19:38:52;;;;;;;8.35;7.00;;;;;;;;;;5030404;28;20387;-83
2022/11/07 19:41:20;;;;;;;7.80;6.93;;;;;;;;;;5040698;28;20618;-84
2022/11/07 19:43:49;;;;;;;7.95;7.22;;;;;;;;;;5025423;28;20483;-84
2022/11/07 19:46:21;;;;;;;8.43;7.63;;;;;;;;;;5017916;28;20873;-83